sensor_id;sensor_type;location;lat;lon;timestamp;temperature;humidity
423;DHT22;198;48.752;9.180;2024-03-02T00:02:01;6.80;99.90
423;DHT22;198;48.752;9.180;2024-03-02T00:04:26;6.80;99.90
423;DHT22;198;48.752;9.180;2024-03-02T00:06:52;6.80;99.90
423;DHT22;198;48.752;9.180;2024-03-02T00:09:20;6.80;99.90
423;DHT22;198;48.752;9.180;2024-03-02T00:11:46;6.80;99.90
423;DHT22;198;48.752;9.180;2024-03-02T00:14:12;6.80;99.90
423;DHT22;198;48.752;9.180;2024-03-02T00:16:37;6.70;99.90
423;DHT22;198;48.752;9.180;2024-03-02T00:19:05;6.80;99.90
423;DHT22;198;48.752;9.180;2024-03-02T00:21:31;6.70;99.90
423;DHT22;198;48.752;9.180;2024-03-02T00:23:57;6.70;99.90
423;DHT22;198;48.752;9.180;2024-03-02T00:26:23;6.70;99.90
423;DHT22;198;48.752;9.180;2024-03-02T00:28:48;6.70;99.90
423;DHT22;198;48.752;9.180;2024-03-02T00:31:16;6.70;99.90
423;DHT22;198;48.752;9.180;2024-03-02T00:33:46;6.70;99.90
423;DHT22;198;48.752;9.180;2024-03-02T00:36:15;6.70;99.90
423;DHT22;198;48.752;9.180;2024-03-02T00:38:51;6.70;99.90
423;DHT22;198;48.752;9.180;2024-03-02T00:41:29;6.70;99.90
423;DHT22;198;48.752;9.180;2024-03-02T00:43:58;6.70;99.90
423;DHT22;198;48.752;9.180;2024-03-02T00:46:24;6.70;99.90
423;DHT22;198;48.752;9.180;2024-03-02T00:48:55;6.60;99.90
423;DHT22;198;48.752;9.180;2024-03-02T00:51:25;6.60;99.90
423;DHT22;198;48.752;9.180;2024-03-02T00:53:55;6.60;99.90
423;DHT22;198;48.752;9.180;2024-03-02T00:56:22;6.60;99.90
423;DHT22;198;48.752;9.180;2024-03-02T00:58:49;6.60;99.90
423;DHT22;198;48.752;9.180;2024-03-02T01:01:14;6.70;99.90
423;DHT22;198;48.752;9.180;2024-03-02T01:03:41;6.70;99.90
423;DHT22;198;48.752;9.180;2024-03-02T01:06:07;6.70;99.90
423;DHT22;198;48.752;9.180;2024-03-02T01:08:34;6.70;99.90
423;DHT22;198;48.752;9.180;2024-03-02T01:11:00;6.70;99.90
423;DHT22;198;48.752;9.180;2024-03-02T01:13:26;6.60;99.90
423;DHT22;198;48.752;9.180;2024-03-02T01:15:51;6.60;99.90
423;DHT22;198;48.752;9.180;2024-03-02T01:18:17;6.60;99.90
423;DHT22;198;48.752;9.180;2024-03-02T01:20:42;6.60;99.90
423;DHT22;198;48.752;9.180;2024-03-02T01:23:08;6.60;99.90
423;DHT22;198;48.752;9.180;2024-03-02T01:25:33;6.50;99.90
423;DHT22;198;48.752;9.180;2024-03-02T01:27:59;6.50;99.90
423;DHT22;198;48.752;9.180;2024-03-02T01:30:24;6.50;99.90
423;DHT22;198;48.752;9.180;2024-03-02T01:32:50;6.40;99.90
423;DHT22;198;48.752;9.180;2024-03-02T01:35:15;6.40;99.90
423;DHT22;198;48.752;9.180;2024-03-02T01:37:41;6.30;99.90
423;DHT22;198;48.752;9.180;2024-03-02T01:40:07;6.30;99.90
423;DHT22;198;48.752;9.180;2024-03-02T01:42:35;6.30;99.90
423;DHT22;198;48.752;9.180;2024-03-02T01:45:01;6.20;99.90
423;DHT22;198;48.752;9.180;2024-03-02T01:47:27;6.20;99.90
423;DHT22;198;48.752;9.180;2024-03-02T01:49:52;6.20;99.90
423;DHT22;198;48.752;9.180;2024-03-02T01:52:18;6.10;99.90
423;DHT22;198;48.752;9.180;2024-03-02T01:54:43;6.10;99.90
423;DHT22;198;48.752;9.180;2024-03-02T01:57:09;6.00;99.90
423;DHT22;198;48.752;9.180;2024-03-02T01:59:35;6.00;99.90
423;DHT22;198;48.752;9.180;2024-03-02T02:02:01;5.90;99.90
423;DHT22;198;48.752;9.180;2024-03-02T02:04:26;5.90;99.90
423;DHT22;198;48.752;9.180;2024-03-02T02:06:53;5.90;99.90
423;DHT22;198;48.752;9.180;2024-03-02T02:09:19;5.90;99.90
423;DHT22;198;48.752;9.180;2024-03-02T02:11:44;5.80;99.90
423;DHT22;198;48.752;9.180;2024-03-02T02:14:10;5.80;99.90
423;DHT22;198;48.752;9.180;2024-03-02T02:16:36;5.80;99.90
423;DHT22;198;48.752;9.180;2024-03-02T02:19:02;5.80;99.90
423;DHT22;198;48.752;9.180;2024-03-02T02:21:28;5.70;99.90
423;DHT22;198;48.752;9.180;2024-03-02T02:23:53;5.70;99.90
423;DHT22;198;48.752;9.180;2024-03-02T02:26:19;5.70;99.90
423;DHT22;198;48.752;9.180;2024-03-02T02:28:44;5.70;99.90
423;DHT22;198;48.752;9.180;2024-03-02T02:31:15;5.60;99.90
423;DHT22;198;48.752;9.180;2024-03-02T02:33:42;5.60;99.90
423;DHT22;198;48.752;9.180;2024-03-02T02:36:08;5.60;99.90
423;DHT22;198;48.752;9.180;2024-03-02T02:38:39;5.50;99.90
423;DHT22;198;48.752;9.180;2024-03-02T02:41:05;5.50;99.90
423;DHT22;198;48.752;9.180;2024-03-02T02:43:31;5.60;99.90
423;DHT22;198;48.752;9.180;2024-03-02T02:45:57;5.50;99.90
423;DHT22;198;48.752;9.180;2024-03-02T02:48:22;5.50;99.90
423;DHT22;198;48.752;9.180;2024-03-02T02:50:48;5.40;99.90
423;DHT22;198;48.752;9.180;2024-03-02T02:53:13;5.50;99.90
423;DHT22;198;48.752;9.180;2024-03-02T02:55:42;5.50;99.90
423;DHT22;198;48.752;9.180;2024-03-02T02:58:09;5.50;99.90
423;DHT22;198;48.752;9.180;2024-03-02T03:00:35;5.40;99.90
423;DHT22;198;48.752;9.180;2024-03-02T03:03:02;5.40;99.90
423;DHT22;198;48.752;9.180;2024-03-02T03:05:28;5.40;99.90
423;DHT22;198;48.752;9.180;2024-03-02T03:07:54;5.40;99.90
423;DHT22;198;48.752;9.180;2024-03-02T03:10:19;5.30;99.90
423;DHT22;198;48.752;9.180;2024-03-02T03:12:47;5.30;99.90
423;DHT22;198;48.752;9.180;2024-03-02T03:15:13;5.30;99.90
423;DHT22;198;48.752;9.180;2024-03-02T03:17:39;5.30;99.90
423;DHT22;198;48.752;9.180;2024-03-02T03:20:05;5.30;99.90
423;DHT22;198;48.752;9.180;2024-03-02T03:22:35;5.30;99.90
423;DHT22;198;48.752;9.180;2024-03-02T03:25:01;5.30;99.90
423;DHT22;198;48.752;9.180;2024-03-02T03:27:27;5.30;99.90
423;DHT22;198;48.752;9.180;2024-03-02T03:29:53;5.30;99.90
423;DHT22;198;48.752;9.180;2024-03-02T03:32:19;5.30;99.90
423;DHT22;198;48.752;9.180;2024-03-02T03:34:45;5.30;99.90
423;DHT22;198;48.752;9.180;2024-03-02T03:37:11;5.30;99.90
423;DHT22;198;48.752;9.180;2024-03-02T03:39:38;5.30;99.90
423;DHT22;198;48.752;9.180;2024-03-02T03:42:12;5.20;99.90
423;DHT22;198;48.752;9.180;2024-03-02T03:48:51;5.20;99.90
423;DHT22;198;48.752;9.180;2024-03-02T03:51:41;5.20;99.90
423;DHT22;198;48.752;9.180;2024-03-02T04:00:42;5.20;99.90
423;DHT22;198;48.752;9.180;2024-03-02T04:03:09;5.20;99.90
423;DHT22;198;48.752;9.180;2024-03-02T04:06:20;5.30;99.90
423;DHT22;198;48.752;9.180;2024-03-02T04:09:09;5.20;99.90
423;DHT22;198;48.752;9.180;2024-03-02T04:12:36;5.30;99.90
423;DHT22;198;48.752;9.180;2024-03-02T04:21:31;5.20;99.90
423;DHT22;198;48.752;9.180;2024-03-02T04:25:02;5.20;99.90
423;DHT22;198;48.752;9.180;2024-03-02T04:28:12;5.10;99.90
423;DHT22;198;48.752;9.180;2024-03-02T04:30:47;5.20;99.90
423;DHT22;198;48.752;9.180;2024-03-02T04:33:17;5.20;99.90
423;DHT22;198;48.752;9.180;2024-03-02T04:35:50;5.20;99.90
423;DHT22;198;48.752;9.180;2024-03-02T04:38:49;5.20;99.90
423;DHT22;198;48.752;9.180;2024-03-02T04:42:02;5.20;99.90
423;DHT22;198;48.752;9.180;2024-03-02T04:45:07;5.20;99.90
423;DHT22;198;48.752;9.180;2024-03-02T04:48:26;5.20;99.90
423;DHT22;198;48.752;9.180;2024-03-02T04:51:09;5.20;99.90
423;DHT22;198;48.752;9.180;2024-03-02T04:57:37;5.20;99.90
423;DHT22;198;48.752;9.180;2024-03-02T05:00:05;5.20;99.90
423;DHT22;198;48.752;9.180;2024-03-02T05:03:02;5.20;99.90
423;DHT22;198;48.752;9.180;2024-03-02T05:05:38;5.20;99.90
423;DHT22;198;48.752;9.180;2024-03-02T05:08:13;5.20;99.90
423;DHT22;198;48.752;9.180;2024-03-02T05:10:47;5.20;99.90
423;DHT22;198;48.752;9.180;2024-03-02T05:13:13;5.20;99.90
423;DHT22;198;48.752;9.180;2024-03-02T05:15:39;5.20;99.90
423;DHT22;198;48.752;9.180;2024-03-02T05:18:05;5.20;99.90
423;DHT22;198;48.752;9.180;2024-03-02T05:20:31;5.20;99.90
423;DHT22;198;48.752;9.180;2024-03-02T05:22:57;5.20;99.90
423;DHT22;198;48.752;9.180;2024-03-02T05:25:22;5.20;99.90
423;DHT22;198;48.752;9.180;2024-03-02T05:27:48;5.20;99.90
423;DHT22;198;48.752;9.180;2024-03-02T05:30:13;5.20;99.90
423;DHT22;198;48.752;9.180;2024-03-02T05:32:39;5.20;99.90
423;DHT22;198;48.752;9.180;2024-03-02T05:35:05;5.20;99.90
423;DHT22;198;48.752;9.180;2024-03-02T05:37:30;5.20;99.90
423;DHT22;198;48.752;9.180;2024-03-02T05:39:56;5.20;99.90
423;DHT22;198;48.752;9.180;2024-03-02T05:42:22;5.20;99.90
423;DHT22;198;48.752;9.180;2024-03-02T05:44:47;5.20;99.90
423;DHT22;198;48.752;9.180;2024-03-02T05:47:13;5.20;99.90
423;DHT22;198;48.752;9.180;2024-03-02T05:49:38;5.20;99.90
423;DHT22;198;48.752;9.180;2024-03-02T05:52:04;5.20;99.90
423;DHT22;198;48.752;9.180;2024-03-02T05:54:30;5.10;99.90
423;DHT22;198;48.752;9.180;2024-03-02T05:56:55;5.10;99.90
423;DHT22;198;48.752;9.180;2024-03-02T05:59:21;5.10;99.90
423;DHT22;198;48.752;9.180;2024-03-02T06:01:47;5.20;99.90
423;DHT22;198;48.752;9.180;2024-03-02T06:04:13;5.10;99.90
423;DHT22;198;48.752;9.180;2024-03-02T06:06:40;5.10;99.90
423;DHT22;198;48.752;9.180;2024-03-02T06:09:06;5.20;99.90
423;DHT22;198;48.752;9.180;2024-03-02T06:11:36;5.20;99.90
423;DHT22;198;48.752;9.180;2024-03-02T06:14:03;5.20;99.90
423;DHT22;198;48.752;9.180;2024-03-02T06:16:29;5.20;99.90
423;DHT22;198;48.752;9.180;2024-03-02T06:18:55;5.30;99.90
423;DHT22;198;48.752;9.180;2024-03-02T06:21:26;5.30;99.90
423;DHT22;198;48.752;9.180;2024-03-02T06:23:52;5.40;99.90
423;DHT22;198;48.752;9.180;2024-03-02T06:26:18;5.40;99.90
423;DHT22;198;48.752;9.180;2024-03-02T06:28:44;5.50;99.90
423;DHT22;198;48.752;9.180;2024-03-02T06:31:10;5.60;99.90
423;DHT22;198;48.752;9.180;2024-03-02T06:33:35;5.70;99.90
423;DHT22;198;48.752;9.180;2024-03-02T06:36:01;5.80;99.90
423;DHT22;198;48.752;9.180;2024-03-02T06:38:28;5.80;99.90
423;DHT22;198;48.752;9.180;2024-03-02T06:40:55;5.80;99.90
423;DHT22;198;48.752;9.180;2024-03-02T06:43:21;6.00;99.90
423;DHT22;198;48.752;9.180;2024-03-02T06:45:50;6.00;99.90
423;DHT22;198;48.752;9.180;2024-03-02T06:48:16;6.10;99.90
423;DHT22;198;48.752;9.180;2024-03-02T06:50:51;6.20;99.90
423;DHT22;198;48.752;9.180;2024-03-02T06:53:17;6.30;99.90
423;DHT22;198;48.752;9.180;2024-03-02T06:55:46;6.30;99.90
423;DHT22;198;48.752;9.180;2024-03-02T06:58:15;6.40;99.90
423;DHT22;198;48.752;9.180;2024-03-02T07:00:42;6.50;99.90
423;DHT22;198;48.752;9.180;2024-03-02T07:03:07;6.60;99.90
423;DHT22;198;48.752;9.180;2024-03-02T07:05:33;6.60;99.90
423;DHT22;198;48.752;9.180;2024-03-02T07:07:58;6.60;99.90
423;DHT22;198;48.752;9.180;2024-03-02T07:10:24;6.70;99.90
423;DHT22;198;48.752;9.180;2024-03-02T07:12:50;6.70;99.90
423;DHT22;198;48.752;9.180;2024-03-02T07:15:15;6.80;99.90
423;DHT22;198;48.752;9.180;2024-03-02T07:17:55;6.80;99.90
423;DHT22;198;48.752;9.180;2024-03-02T07:20:21;6.80;99.90
423;DHT22;198;48.752;9.180;2024-03-02T07:22:46;6.90;99.90
423;DHT22;198;48.752;9.180;2024-03-02T07:25:12;7.00;99.90
423;DHT22;198;48.752;9.180;2024-03-02T07:27:38;7.00;99.90
423;DHT22;198;48.752;9.180;2024-03-02T07:30:05;7.10;99.90
423;DHT22;198;48.752;9.180;2024-03-02T07:32:31;7.20;99.90
423;DHT22;198;48.752;9.180;2024-03-02T07:34:56;7.40;99.90
423;DHT22;198;48.752;9.180;2024-03-02T07:37:23;7.50;99.90
423;DHT22;198;48.752;9.180;2024-03-02T07:39:48;7.50;99.90
423;DHT22;198;48.752;9.180;2024-03-02T07:42:14;7.60;99.90
423;DHT22;198;48.752;9.180;2024-03-02T07:44:39;7.60;99.90
423;DHT22;198;48.752;9.180;2024-03-02T07:47:05;7.60;99.90
423;DHT22;198;48.752;9.180;2024-03-02T07:49:31;7.60;99.90
423;DHT22;198;48.752;9.180;2024-03-02T07:51:57;7.60;99.90
423;DHT22;198;48.752;9.180;2024-03-02T07:54:22;7.60;99.90
423;DHT22;198;48.752;9.180;2024-03-02T07:56:48;7.60;99.90
423;DHT22;198;48.752;9.180;2024-03-02T07:59:13;7.50;99.90
423;DHT22;198;48.752;9.180;2024-03-02T08:01:39;7.50;99.90
423;DHT22;198;48.752;9.180;2024-03-02T08:04:04;7.50;99.90
423;DHT22;198;48.752;9.180;2024-03-02T08:06:30;7.50;99.90
423;DHT22;198;48.752;9.180;2024-03-02T08:08:57;7.50;99.90
423;DHT22;198;48.752;9.180;2024-03-02T08:11:23;7.50;99.90
423;DHT22;198;48.752;9.180;2024-03-02T08:13:49;7.50;99.90
423;DHT22;198;48.752;9.180;2024-03-02T08:16:16;7.50;99.90
423;DHT22;198;48.752;9.180;2024-03-02T08:18:44;7.60;99.90
423;DHT22;198;48.752;9.180;2024-03-02T08:21:09;7.60;99.90
423;DHT22;198;48.752;9.180;2024-03-02T08:23:35;7.70;99.90
423;DHT22;198;48.752;9.180;2024-03-02T08:26:01;7.80;99.90
423;DHT22;198;48.752;9.180;2024-03-02T08:28:26;8.00;99.90
423;DHT22;198;48.752;9.180;2024-03-02T08:30:52;8.30;99.90
423;DHT22;198;48.752;9.180;2024-03-02T08:33:17;8.60;99.90
423;DHT22;198;48.752;9.180;2024-03-02T08:35:43;8.90;99.90
423;DHT22;198;48.752;9.180;2024-03-02T08:38:09;9.10;99.90
423;DHT22;198;48.752;9.180;2024-03-02T08:40:35;9.30;99.90
423;DHT22;198;48.752;9.180;2024-03-02T08:43:00;9.60;99.90
423;DHT22;198;48.752;9.180;2024-03-02T08:45:26;9.90;99.90
423;DHT22;198;48.752;9.180;2024-03-02T08:47:51;10.20;99.90
423;DHT22;198;48.752;9.180;2024-03-02T08:50:17;10.50;99.90
423;DHT22;198;48.752;9.180;2024-03-02T08:52:43;10.70;99.90
423;DHT22;198;48.752;9.180;2024-03-02T08:55:08;11.00;99.90
423;DHT22;198;48.752;9.180;2024-03-02T08:57:36;11.40;99.90
423;DHT22;198;48.752;9.180;2024-03-02T09:00:02;11.80;98.60
423;DHT22;198;48.752;9.180;2024-03-02T09:02:28;12.30;95.90
423;DHT22;198;48.752;9.180;2024-03-02T09:04:53;13.00;93.60
423;DHT22;198;48.752;9.180;2024-03-02T09:07:19;13.90;89.80
423;DHT22;198;48.752;9.180;2024-03-02T09:09:44;14.60;82.80
423;DHT22;198;48.752;9.180;2024-03-02T09:12:10;15.40;77.20
423;DHT22;198;48.752;9.180;2024-03-02T09:14:36;16.20;70.90
423;DHT22;198;48.752;9.180;2024-03-02T09:17:02;16.80;62.10
423;DHT22;198;48.752;9.180;2024-03-02T09:19:29;17.30;59.50
423;DHT22;198;48.752;9.180;2024-03-02T09:21:54;17.90;56.50
423;DHT22;198;48.752;9.180;2024-03-02T09:24:21;18.80;53.90
423;DHT22;198;48.752;9.180;2024-03-02T09:26:47;19.60;52.40
423;DHT22;198;48.752;9.180;2024-03-02T09:29:12;20.30;49.60
423;DHT22;198;48.752;9.180;2024-03-02T09:31:42;20.80;47.00
423;DHT22;198;48.752;9.180;2024-03-02T09:34:08;21.40;44.10
423;DHT22;198;48.752;9.180;2024-03-02T09:36:33;21.70;43.40
423;DHT22;198;48.752;9.180;2024-03-02T09:38:59;22.20;41.70
423;DHT22;198;48.752;9.180;2024-03-02T09:41:24;22.80;40.90
423;DHT22;198;48.752;9.180;2024-03-02T09:43:50;23.60;39.70
423;DHT22;198;48.752;9.180;2024-03-02T09:46:16;24.40;36.80
423;DHT22;198;48.752;9.180;2024-03-02T09:48:44;25.60;35.50
423;DHT22;198;48.752;9.180;2024-03-02T09:51:10;26.30;32.90
423;DHT22;198;48.752;9.180;2024-03-02T09:53:36;26.20;31.90
423;DHT22;198;48.752;9.180;2024-03-02T09:56:01;26.70;30.50
423;DHT22;198;48.752;9.180;2024-03-02T09:58:27;26.80;30.00
423;DHT22;198;48.752;9.180;2024-03-02T10:00:53;27.60;29.70
423;DHT22;198;48.752;9.180;2024-03-02T10:03:19;28.00;28.70
423;DHT22;198;48.752;9.180;2024-03-02T10:05:44;28.30;27.60
423;DHT22;198;48.752;9.180;2024-03-02T10:08:10;29.00;27.70
423;DHT22;198;48.752;9.180;2024-03-02T10:10:40;30.60;27.30
423;DHT22;198;48.752;9.180;2024-03-02T10:13:10;31.00;25.70
423;DHT22;198;48.752;9.180;2024-03-02T10:15:37;31.40;24.50
423;DHT22;198;48.752;9.180;2024-03-02T10:18:04;31.10;24.30
423;DHT22;198;48.752;9.180;2024-03-02T10:20:30;30.70;24.40
423;DHT22;198;48.752;9.180;2024-03-02T10:22:56;30.60;24.90
423;DHT22;198;48.752;9.180;2024-03-02T10:25:35;30.60;25.10
423;DHT22;198;48.752;9.180;2024-03-02T10:28:01;31.00;24.70
423;DHT22;198;48.752;9.180;2024-03-02T10:30:27;30.70;23.70
423;DHT22;198;48.752;9.180;2024-03-02T10:32:54;30.60;24.40
423;DHT22;198;48.752;9.180;2024-03-02T10:35:21;30.00;24.50
423;DHT22;198;48.752;9.180;2024-03-02T10:37:48;30.00;24.70
423;DHT22;198;48.752;9.180;2024-03-02T10:40:14;30.20;24.50
423;DHT22;198;48.752;9.180;2024-03-02T10:42:41;29.70;24.90
423;DHT22;198;48.752;9.180;2024-03-02T10:45:09;29.40;25.70
423;DHT22;198;48.752;9.180;2024-03-02T10:47:38;29.10;26.00
423;DHT22;198;48.752;9.180;2024-03-02T10:50:05;28.40;26.10
423;DHT22;198;48.752;9.180;2024-03-02T10:52:39;26.80;27.40
423;DHT22;198;48.752;9.180;2024-03-02T10:55:06;25.40;29.10
423;DHT22;198;48.752;9.180;2024-03-02T10:57:53;24.80;29.80
423;DHT22;198;48.752;9.180;2024-03-02T11:00:19;25.20;30.30
423;DHT22;198;48.752;9.180;2024-03-02T11:02:57;26.30;29.30
423;DHT22;198;48.752;9.180;2024-03-02T11:05:27;27.00;28.00
423;DHT22;198;48.752;9.180;2024-03-02T11:08:05;27.20;28.20
423;DHT22;198;48.752;9.180;2024-03-02T11:10:36;26.60;27.00
423;DHT22;198;48.752;9.180;2024-03-02T11:13:05;25.50;27.80
423;DHT22;198;48.752;9.180;2024-03-02T11:15:34;25.00;29.10
423;DHT22;198;48.752;9.180;2024-03-02T11:18:03;25.60;29.70
423;DHT22;198;48.752;9.180;2024-03-02T11:20:31;26.80;28.30
423;DHT22;198;48.752;9.180;2024-03-02T11:22:57;28.80;27.20
423;DHT22;198;48.752;9.180;2024-03-02T11:25:26;29.20;24.40
423;DHT22;198;48.752;9.180;2024-03-02T11:33:09;27.50;25.10
423;DHT22;198;48.752;9.180;2024-03-02T11:35:42;27.70;25.20
423;DHT22;198;48.752;9.180;2024-03-02T11:38:09;28.20;24.40
423;DHT22;198;48.752;9.180;2024-03-02T11:40:35;28.90;23.50
423;DHT22;198;48.752;9.180;2024-03-02T11:43:01;28.90;22.80
423;DHT22;198;48.752;9.180;2024-03-02T11:45:27;29.10;23.40
423;DHT22;198;48.752;9.180;2024-03-02T11:47:57;28.70;22.60
423;DHT22;198;48.752;9.180;2024-03-02T11:50:40;28.20;23.40
423;DHT22;198;48.752;9.180;2024-03-02T11:53:09;27.90;23.70
423;DHT22;198;48.752;9.180;2024-03-02T11:55:36;28.20;23.80
423;DHT22;198;48.752;9.180;2024-03-02T11:58:06;28.50;24.00
423;DHT22;198;48.752;9.180;2024-03-02T12:00:31;29.50;22.50
423;DHT22;198;48.752;9.180;2024-03-02T12:03:02;30.00;22.10
423;DHT22;198;48.752;9.180;2024-03-02T12:05:28;30.70;22.00
423;DHT22;198;48.752;9.180;2024-03-02T12:08:00;30.90;22.10
423;DHT22;198;48.752;9.180;2024-03-02T12:10:26;32.10;22.20
423;DHT22;198;48.752;9.180;2024-03-02T12:13:10;32.30;20.90
423;DHT22;198;48.752;9.180;2024-03-02T12:15:38;33.50;21.50
423;DHT22;198;48.752;9.180;2024-03-02T12:18:05;34.50;20.20
423;DHT22;198;48.752;9.180;2024-03-02T12:20:32;35.50;19.60
423;DHT22;198;48.752;9.180;2024-03-02T12:22:59;35.90;19.30
423;DHT22;198;48.752;9.180;2024-03-02T12:25:26;35.50;18.60
423;DHT22;198;48.752;9.180;2024-03-02T12:27:54;35.70;18.40
423;DHT22;198;48.752;9.180;2024-03-02T12:30:21;35.60;18.20
423;DHT22;198;48.752;9.180;2024-03-02T12:32:47;35.90;18.50
423;DHT22;198;48.752;9.180;2024-03-02T12:35:13;36.90;18.20
423;DHT22;198;48.752;9.180;2024-03-02T12:40:13;37.80;18.20
423;DHT22;198;48.752;9.180;2024-03-02T12:42:39;38.90;17.80
423;DHT22;198;48.752;9.180;2024-03-02T12:45:06;39.50;16.60
423;DHT22;198;48.752;9.180;2024-03-02T12:47:33;40.00;16.50
423;DHT22;198;48.752;9.180;2024-03-02T12:49:59;41.70;16.80
423;DHT22;198;48.752;9.180;2024-03-02T12:52:25;43.10;15.40
423;DHT22;198;48.752;9.180;2024-03-02T12:54:51;44.20;14.60
423;DHT22;198;48.752;9.180;2024-03-02T12:57:18;42.80;14.00
423;DHT22;198;48.752;9.180;2024-03-02T12:59:47;42.10;14.80
423;DHT22;198;48.752;9.180;2024-03-02T13:02:19;42.00;14.50
423;DHT22;198;48.752;9.180;2024-03-02T13:04:52;42.10;14.50
423;DHT22;198;48.752;9.180;2024-03-02T13:07:20;42.60;14.50
423;DHT22;198;48.752;9.180;2024-03-02T13:09:45;43.90;14.90
423;DHT22;198;48.752;9.180;2024-03-02T13:12:11;44.00;13.80
423;DHT22;198;48.752;9.180;2024-03-02T13:14:37;43.00;13.80
423;DHT22;198;48.752;9.180;2024-03-02T13:17:02;42.50;14.00
423;DHT22;198;48.752;9.180;2024-03-02T13:19:30;42.70;14.30
423;DHT22;198;48.752;9.180;2024-03-02T13:21:56;41.80;14.10
423;DHT22;198;48.752;9.180;2024-03-02T13:24:22;41.20;13.80
423;DHT22;198;48.752;9.180;2024-03-02T13:26:51;41.20;14.50
423;DHT22;198;48.752;9.180;2024-03-02T13:29:21;42.70;14.40
423;DHT22;198;48.752;9.180;2024-03-02T13:31:46;44.40;14.10
423;DHT22;198;48.752;9.180;2024-03-02T13:34:12;44.80;13.50
423;DHT22;198;48.752;9.180;2024-03-02T13:36:37;44.90;13.20
423;DHT22;198;48.752;9.180;2024-03-02T13:39:04;45.30;13.20
423;DHT22;198;48.752;9.180;2024-03-02T13:41:31;46.00;12.70
423;DHT22;198;48.752;9.180;2024-03-02T13:43:57;45.80;12.40
423;DHT22;198;48.752;9.180;2024-03-02T13:46:22;45.80;12.80
423;DHT22;198;48.752;9.180;2024-03-02T13:48:48;46.60;12.60
423;DHT22;198;48.752;9.180;2024-03-02T13:51:13;46.80;12.30
423;DHT22;198;48.752;9.180;2024-03-02T13:53:39;46.80;12.40
423;DHT22;198;48.752;9.180;2024-03-02T13:56:05;46.80;12.00
423;DHT22;198;48.752;9.180;2024-03-02T13:58:31;45.80;12.20
423;DHT22;198;48.752;9.180;2024-03-02T14:00:57;45.40;11.90
423;DHT22;198;48.752;9.180;2024-03-02T14:03:23;44.90;11.90
423;DHT22;198;48.752;9.180;2024-03-02T14:05:48;44.20;12.30
423;DHT22;198;48.752;9.180;2024-03-02T14:08:15;43.40;12.70
423;DHT22;198;48.752;9.180;2024-03-02T14:10:41;42.70;12.20
423;DHT22;198;48.752;9.180;2024-03-02T14:13:08;42.30;12.90
423;DHT22;198;48.752;9.180;2024-03-02T14:15:33;42.20;13.40
423;DHT22;198;48.752;9.180;2024-03-02T14:17:59;42.00;13.00
423;DHT22;198;48.752;9.180;2024-03-02T14:20:24;41.60;13.20
423;DHT22;198;48.752;9.180;2024-03-02T14:22:50;40.80;13.30
423;DHT22;198;48.752;9.180;2024-03-02T14:25:16;39.70;13.70
423;DHT22;198;48.752;9.180;2024-03-02T14:27:42;39.60;14.40
423;DHT22;198;48.752;9.180;2024-03-02T14:30:08;39.80;14.80
423;DHT22;198;48.752;9.180;2024-03-02T14:32:33;39.70;14.30
423;DHT22;198;48.752;9.180;2024-03-02T14:34:59;39.60;14.50
423;DHT22;198;48.752;9.180;2024-03-02T14:37:24;40.00;14.30
423;DHT22;198;48.752;9.180;2024-03-02T14:39:50;40.90;14.20
423;DHT22;198;48.752;9.180;2024-03-02T14:42:16;41.40;13.90
423;DHT22;198;48.752;9.180;2024-03-02T14:44:41;40.80;13.40
423;DHT22;198;48.752;9.180;2024-03-02T14:47:07;39.60;13.90
423;DHT22;198;48.752;9.180;2024-03-02T14:49:33;39.00;14.20
423;DHT22;198;48.752;9.180;2024-03-02T14:52:01;38.50;14.20
423;DHT22;198;48.752;9.180;2024-03-02T14:54:26;37.60;14.00
423;DHT22;198;48.752;9.180;2024-03-02T14:56:52;37.40;14.50
423;DHT22;198;48.752;9.180;2024-03-02T14:59:17;37.70;14.50
423;DHT22;198;48.752;9.180;2024-03-02T15:01:44;37.70;13.90
423;DHT22;198;48.752;9.180;2024-03-02T15:04:09;37.10;14.00
423;DHT22;198;48.752;9.180;2024-03-02T15:06:35;36.30;14.20
423;DHT22;198;48.752;9.180;2024-03-02T15:09:00;36.10;14.70
423;DHT22;198;48.752;9.180;2024-03-02T15:11:27;35.50;14.80
423;DHT22;198;48.752;9.180;2024-03-02T15:13:52;35.20;15.10
423;DHT22;198;48.752;9.180;2024-03-02T15:16:18;35.60;15.30
423;DHT22;198;48.752;9.180;2024-03-02T15:18:43;35.10;15.50
423;DHT22;198;48.752;9.180;2024-03-02T15:21:10;33.60;15.50
423;DHT22;198;48.752;9.180;2024-03-02T15:23:36;32.80;16.20
423;DHT22;198;48.752;9.180;2024-03-02T15:26:02;31.50;16.90
423;DHT22;198;48.752;9.180;2024-03-02T15:28:27;30.10;17.50
423;DHT22;198;48.752;9.180;2024-03-02T15:30:53;28.60;18.60
423;DHT22;198;48.752;9.180;2024-03-02T15:33:18;27.40;19.10
423;DHT22;198;48.752;9.180;2024-03-02T15:35:44;26.00;20.10
423;DHT22;198;48.752;9.180;2024-03-02T15:38:09;24.80;20.80
423;DHT22;198;48.752;9.180;2024-03-02T15:40:38;23.90;21.80
423;DHT22;198;48.752;9.180;2024-03-02T15:43:04;23.20;22.40
423;DHT22;198;48.752;9.180;2024-03-02T15:45:29;22.80;22.70
423;DHT22;198;48.752;9.180;2024-03-02T15:47:59;22.40;23.20
423;DHT22;198;48.752;9.180;2024-03-02T15:50:25;21.90;23.60
423;DHT22;198;48.752;9.180;2024-03-02T15:52:51;21.40;24.10
423;DHT22;198;48.752;9.180;2024-03-02T15:55:17;20.80;25.00
423;DHT22;198;48.752;9.180;2024-03-02T15:57:42;20.40;25.60
423;DHT22;198;48.752;9.180;2024-03-02T16:00:08;19.90;26.70
423;DHT22;198;48.752;9.180;2024-03-02T16:02:34;19.50;27.20
423;DHT22;198;48.752;9.180;2024-03-02T16:04:59;19.00;27.80
423;DHT22;198;48.752;9.180;2024-03-02T16:07:25;18.60;28.70
423;DHT22;198;48.752;9.180;2024-03-02T16:09:50;18.30;29.30
423;DHT22;198;48.752;9.180;2024-03-02T16:12:16;18.00;29.70
423;DHT22;198;48.752;9.180;2024-03-02T16:14:42;17.70;30.40
423;DHT22;198;48.752;9.180;2024-03-02T16:17:07;17.40;31.00
423;DHT22;198;48.752;9.180;2024-03-02T16:19:33;17.20;31.40
423;DHT22;198;48.752;9.180;2024-03-02T16:21:58;16.90;32.20
423;DHT22;198;48.752;9.180;2024-03-02T16:24:24;16.70;33.40
423;DHT22;198;48.752;9.180;2024-03-02T16:26:49;16.50;33.80
423;DHT22;198;48.752;9.180;2024-03-02T16:29:15;16.30;35.00
423;DHT22;198;48.752;9.180;2024-03-02T16:31:40;16.10;35.20
423;DHT22;198;48.752;9.180;2024-03-02T16:34:06;15.90;35.50
423;DHT22;198;48.752;9.180;2024-03-02T16:36:32;15.70;35.90
423;DHT22;198;48.752;9.180;2024-03-02T16:38:59;15.60;36.50
423;DHT22;198;48.752;9.180;2024-03-02T16:41:25;15.40;37.30
423;DHT22;198;48.752;9.180;2024-03-02T16:43:54;15.30;37.70
423;DHT22;198;48.752;9.180;2024-03-02T16:46:20;15.10;38.20
423;DHT22;198;48.752;9.180;2024-03-02T16:48:45;15.00;38.30
423;DHT22;198;48.752;9.180;2024-03-02T16:51:11;14.90;38.90
423;DHT22;198;48.752;9.180;2024-03-02T16:53:36;14.80;39.90
423;DHT22;198;48.752;9.180;2024-03-02T16:56:02;14.70;40.30
423;DHT22;198;48.752;9.180;2024-03-02T16:58:28;14.70;41.00
423;DHT22;198;48.752;9.180;2024-03-02T17:00:54;14.60;41.40
423;DHT22;198;48.752;9.180;2024-03-02T17:03:19;14.50;41.50
423;DHT22;198;48.752;9.180;2024-03-02T17:05:45;14.40;42.00
423;DHT22;198;48.752;9.180;2024-03-02T17:08:10;14.30;42.50
423;DHT22;198;48.752;9.180;2024-03-02T17:10:36;14.20;43.10
423;DHT22;198;48.752;9.180;2024-03-02T17:13:02;14.20;43.90
423;DHT22;198;48.752;9.180;2024-03-02T17:15:28;14.10;44.20
423;DHT22;198;48.752;9.180;2024-03-02T17:17:54;14.00;44.70